createdAt,value
2024-03-12T00:01:10.015Z,7.32
2024-03-12T00:03:45.467Z,7.30
2024-03-12T00:06:13.157Z,7.28
2024-03-12T00:08:43.819Z,7.27
2024-03-12T00:11:11.322Z,7.28
2024-03-12T00:13:38.560Z,7.29
2024-03-12T00:16:06.836Z,7.29
2024-03-12T00:18:34.894Z,7.32
2024-03-12T00:21:02.363Z,7.34
2024-03-12T00:23:30.174Z,7.31
2024-03-12T00:25:57.636Z,7.33
2024-03-12T00:28:25.014Z,7.35
2024-03-12T00:30:54.892Z,7.36
2024-03-12T00:33:22.344Z,7.38
2024-03-12T00:35:49.709Z,7.39
2024-03-12T00:38:19.193Z,7.41
2024-03-12T00:40:49.228Z,7.39
2024-03-12T00:43:16.591Z,7.40
2024-03-12T00:45:46.134Z,7.40
2024-03-12T00:48:15.052Z,7.40
2024-03-12T00:50:46.365Z,7.39
2024-03-12T00:53:15.085Z,7.40
2024-03-12T00:55:43.707Z,7.39
2024-03-12T00:58:13.905Z,7.38
2024-03-12T01:00:42.631Z,7.38
2024-03-12T01:03:10.830Z,7.39
2024-03-12T01:05:39.610Z,7.38
2024-03-12T01:08:08.735Z,7.38
2024-03-12T01:10:37.409Z,7.37
2024-03-12T01:13:12.768Z,7.37
2024-03-12T01:15:41.151Z,7.37
2024-03-12T01:18:09.701Z,7.38
2024-03-12T01:20:37.671Z,7.36
2024-03-12T01:23:08.513Z,7.36
2024-03-12T01:25:37.669Z,7.36
2024-03-12T01:28:09.140Z,7.34
2024-03-12T01:30:38.323Z,7.32
2024-03-12T01:33:09.464Z,7.29
2024-03-12T01:35:41.111Z,7.29
2024-03-12T01:38:12.013Z,7.27
2024-03-12T01:40:40.802Z,7.26
2024-03-12T01:43:09.211Z,7.23
2024-03-12T01:45:37.468Z,7.20
2024-03-12T01:48:09.993Z,7.18
2024-03-12T01:50:40.410Z,7.20
2024-03-12T01:53:08.952Z,7.22
2024-03-12T01:55:39.441Z,7.25
2024-03-12T01:58:07.704Z,7.25
2024-03-12T02:00:35.614Z,7.26
2024-03-12T02:03:03.086Z,7.26
2024-03-12T02:05:30.629Z,7.25
2024-03-12T02:07:58.034Z,7.26
2024-03-12T02:10:26.336Z,7.25
2024-03-12T02:12:53.997Z,7.27
2024-03-12T02:15:24.978Z,7.27
2024-03-12T02:17:55.340Z,7.28
2024-03-12T02:20:24.289Z,7.26
2024-03-12T02:22:56.813Z,7.29
2024-03-12T02:25:24.705Z,7.30
2024-03-12T02:27:53.419Z,7.30
2024-03-12T02:30:22.037Z,7.30
2024-03-12T02:32:50.101Z,7.28
2024-03-12T02:35:18.458Z,7.28
2024-03-12T02:37:46.368Z,7.26
2024-03-12T02:40:15.047Z,7.23
2024-03-12T02:42:43.948Z,7.22
2024-03-12T02:45:21.959Z,7.22
2024-03-12T02:47:49.573Z,7.19
2024-03-12T02:50:17.585Z,7.19
2024-03-12T02:52:46.832Z,7.21
2024-03-12T02:55:14.867Z,7.24
2024-03-12T02:57:42.595Z,7.24
2024-03-12T03:00:14.390Z,7.25
2024-03-12T03:02:45.186Z,7.26
2024-03-12T03:05:14.321Z,7.27
2024-03-12T03:07:42.550Z,7.28
2024-03-12T03:10:14.314Z,7.28
2024-03-12T03:12:45.589Z,7.25
2024-03-12T03:15:14.078Z,7.26
2024-03-12T03:17:47.094Z,7.25
2024-03-12T03:20:17.294Z,7.23
2024-03-12T03:22:45.755Z,7.23
2024-03-12T03:25:13.898Z,7.22
2024-03-12T03:27:41.562Z,7.20
2024-03-12T03:30:11.425Z,7.19
2024-03-12T03:32:38.714Z,7.20
2024-03-12T03:35:09.124Z,7.20
2024-03-12T03:37:36.801Z,7.18
2024-03-12T03:40:05.944Z,7.18
2024-03-12T03:42:33.339Z,7.18
2024-03-12T03:45:00.639Z,7.18
2024-03-12T03:47:35.191Z,7.16
2024-03-12T03:50:06.447Z,7.15
2024-03-12T03:52:33.863Z,7.15
2024-03-12T03:55:01.268Z,7.10
2024-03-12T03:57:28.533Z,7.09
2024-03-12T03:59:57.807Z,7.07
2024-03-12T04:02:26.080Z,7.06
2024-03-12T04:04:53.364Z,7.05
2024-03-12T04:07:26.630Z,7.03
2024-03-12T04:09:56.019Z,6.95
2024-03-12T04:12:23.777Z,6.95
2024-03-12T04:14:51.004Z,6.93
2024-03-12T04:17:20.245Z,6.93
2024-03-12T04:19:49.117Z,6.90
2024-03-12T04:22:20.400Z,6.92
2024-03-12T04:24:48.065Z,6.87
2024-03-12T04:27:16.183Z,6.89
2024-03-12T04:29:43.900Z,6.86
2024-03-12T04:32:11.308Z,6.87
2024-03-12T04:34:38.614Z,6.87
2024-03-12T04:37:06.456Z,6.84
2024-03-12T04:39:34.446Z,6.86
2024-03-12T04:42:06.336Z,6.83
2024-03-12T04:44:34.403Z,6.83
2024-03-12T04:47:02.032Z,6.84
2024-03-12T04:49:29.380Z,6.83
2024-03-12T04:51:57.044Z,6.83
2024-03-12T04:54:24.326Z,6.83
2024-03-12T04:56:52.079Z,6.83
2024-03-12T04:59:19.386Z,6.83
2024-03-12T05:01:48.909Z,6.82
2024-03-12T05:04:22.542Z,6.84
2024-03-12T05:06:51.192Z,6.85
2024-03-12T05:09:19.504Z,6.82
2024-03-12T05:11:47.304Z,6.81
2024-03-12T05:14:14.850Z,6.80
2024-03-12T05:16:42.767Z,6.78
2024-03-12T05:19:12.253Z,6.75
2024-03-12T05:21:39.966Z,6.72
2024-03-12T05:24:07.534Z,6.70
2024-03-12T05:26:37.737Z,6.65
2024-03-12T05:29:05.308Z,6.62
2024-03-12T05:31:38.670Z,6.61
2024-03-12T05:34:28.915Z,6.60
2024-03-12T05:37:05.775Z,6.62
2024-03-12T05:39:49.673Z,6.66
2024-03-12T05:42:35.508Z,6.75
2024-03-12T05:45:21.316Z,6.84
2024-03-12T05:48:07.207Z,6.94
2024-03-12T05:50:34.474Z,7.06
2024-03-12T05:53:01.643Z,7.09
2024-03-12T05:55:28.766Z,7.13
2024-03-12T05:57:55.937Z,7.10
2024-03-12T06:00:24.426Z,7.04
2024-03-12T06:02:51.677Z,7.03
2024-03-12T06:05:18.940Z,6.99
2024-03-12T06:07:46.387Z,6.96
2024-03-12T06:10:13.687Z,6.89
2024-03-12T06:12:41.536Z,6.81
2024-03-12T06:15:12.494Z,6.78
2024-03-12T06:17:39.792Z,6.76
2024-03-12T06:20:11.182Z,6.73
2024-03-12T06:22:39.010Z,6.72
2024-03-12T06:25:10.487Z,6.73
2024-03-12T06:27:41.712Z,6.72
2024-03-12T06:30:09.665Z,6.73
2024-03-12T06:32:36.918Z,6.73
2024-03-12T06:35:04.844Z,6.71
2024-03-12T06:37:32.021Z,6.71
2024-03-12T06:39:59.992Z,6.72
2024-03-12T06:42:27.727Z,6.70
2024-03-12T06:44:55.921Z,6.69
2024-03-12T06:47:25.545Z,6.70
2024-03-12T06:49:55.606Z,6.70
2024-03-12T06:52:27.714Z,6.70
2024-03-12T06:54:55.088Z,6.71
2024-03-12T06:57:23.489Z,6.67
2024-03-12T06:59:51.096Z,6.67
2024-03-12T07:02:23.534Z,6.67
2024-03-12T07:04:52.172Z,6.68
2024-03-12T07:07:20.749Z,6.66
2024-03-12T07:09:50.485Z,6.67
2024-03-12T07:12:19.596Z,6.69
2024-03-12T07:14:55.813Z,6.73
2024-03-12T07:17:23.981Z,6.75
2024-03-12T07:19:52.162Z,6.80
2024-03-12T07:22:19.554Z,6.84
2024-03-12T07:24:47.096Z,6.89
2024-03-12T07:27:14.804Z,6.91
2024-03-12T07:29:45.120Z,6.94
2024-03-12T07:32:14.444Z,6.96
2024-03-12T07:34:43.322Z,6.97
2024-03-12T07:37:13.094Z,6.96
2024-03-12T07:39:40.453Z,6.97
2024-03-12T07:42:13.486Z,6.97
2024-03-12T07:44:42.740Z,6.97
2024-03-12T07:47:11.369Z,6.98
2024-03-12T07:49:38.944Z,7.01
2024-03-12T07:52:07.200Z,7.03
2024-03-12T07:54:35.135Z,7.06
2024-03-12T07:57:02.813Z,7.07
2024-03-12T07:59:31.457Z,7.09
2024-03-12T08:01:59.455Z,7.12
2024-03-12T08:04:27.278Z,7.17
2024-03-12T08:06:55.268Z,7.17
2024-03-12T08:09:22.541Z,7.19
2024-03-12T08:11:50.667Z,7.21
2024-03-12T08:14:18.797Z,7.23
2024-03-12T08:16:46.112Z,7.29
2024-03-12T08:19:14.032Z,7.32
2024-03-12T08:21:41.410Z,7.30
2024-03-12T08:24:11.942Z,7.30
2024-03-12T08:26:39.225Z,7.31
2024-03-12T08:29:06.489Z,7.32
2024-03-12T08:31:38.716Z,7.34
2024-03-12T08:34:10.542Z,7.39
2024-03-12T08:36:37.900Z,7.46
2024-03-12T08:39:05.892Z,7.53
2024-03-12T08:41:34.401Z,7.58
2024-03-12T08:44:02.108Z,7.57
2024-03-12T08:46:29.961Z,7.56
2024-03-12T08:48:57.313Z,7.58
2024-03-12T08:51:25.243Z,7.59
2024-03-12T08:53:52.730Z,7.60
2024-03-12T08:56:22.705Z,7.61
2024-03-12T08:58:50.450Z,7.61
2024-03-12T09:01:19.445Z,7.65
2024-03-12T09:03:47.593Z,7.70
2024-03-12T09:06:15.046Z,7.78
2024-03-12T09:08:43.761Z,7.80
2024-03-12T09:11:17.106Z,7.86
2024-03-12T09:13:46.324Z,7.90
2024-03-12T09:16:14.342Z,7.93
2024-03-12T09:18:43.500Z,7.93
2024-03-12T09:21:15.176Z,7.97
2024-03-12T09:23:53.241Z,7.99
2024-03-12T09:26:29.371Z,8.06
2024-03-12T09:28:56.967Z,8.15
2024-03-12T09:31:24.728Z,8.23
2024-03-12T09:33:53.380Z,8.32
2024-03-12T09:36:22.392Z,8.40
2024-03-12T09:38:51.922Z,8.47
2024-03-12T09:41:25.164Z,8.53
2024-03-12T09:43:55.064Z,8.58
2024-03-12T09:46:23.723Z,8.68
2024-03-12T09:48:52.954Z,8.81
2024-03-12T09:51:22.546Z,8.84
2024-03-12T09:53:50.788Z,8.83
2024-03-12T09:56:19.615Z,8.89
2024-03-12T09:58:48.802Z,8.93
2024-03-12T10:01:16.409Z,8.89
2024-03-12T10:03:43.923Z,8.85
2024-03-12T10:06:11.255Z,8.84
2024-03-12T10:08:38.514Z,8.86
2024-03-12T10:11:10.110Z,8.96
2024-03-12T10:13:41.609Z,9.05
2024-03-12T10:16:09.645Z,9.09
2024-03-12T10:18:40.221Z,9.12
2024-03-12T10:21:08.300Z,9.17
2024-03-12T10:23:41.323Z,9.22
2024-03-12T10:26:17.395Z,9.31
2024-03-12T10:28:47.152Z,9.40
2024-03-12T10:31:16.132Z,9.46
2024-03-12T10:33:49.797Z,9.52
2024-03-12T10:36:34.652Z,9.53
2024-03-12T10:39:07.928Z,9.56
2024-03-12T10:41:35.498Z,9.62
2024-03-12T10:44:17.552Z,9.68
2024-03-12T10:46:46.304Z,9.75
2024-03-12T10:49:18.712Z,9.76
2024-03-12T10:51:46.432Z,9.72
2024-03-12T10:54:15.671Z,9.67
2024-03-12T10:56:46.984Z,9.62
2024-03-12T10:59:17.575Z,9.52
2024-03-12T11:01:45.125Z,9.48
2024-03-12T11:04:14.575Z,9.42
2024-03-12T11:06:41.997Z,9.39
2024-03-12T11:09:13.182Z,9.40
2024-03-12T11:11:40.733Z,9.47
2024-03-12T11:14:08.946Z,9.56
2024-03-12T11:16:37.076Z,9.57
2024-03-12T11:19:24.145Z,9.55
2024-03-12T11:22:10.924Z,9.50
2024-03-12T11:24:48.987Z,9.49
2024-03-12T11:27:26.753Z,9.52
2024-03-12T11:30:09.437Z,9.51
2024-03-12T11:32:43.073Z,9.46
2024-03-12T11:35:19.341Z,9.45
2024-03-12T11:37:48.601Z,9.46
2024-03-12T11:40:30.421Z,9.54
2024-03-12T11:42:59.511Z,9.62
2024-03-12T11:45:49.011Z,9.77
2024-03-12T11:48:22.226Z,9.89
2024-03-12T11:51:00.347Z,9.99
2024-03-12T11:53:39.426Z,10.04
2024-03-12T11:56:09.219Z,10.05
2024-03-12T11:58:49.189Z,10.06
2024-03-12T12:01:40.105Z,10.09
2024-03-12T12:04:10.926Z,10.16
2024-03-12T12:06:38.409Z,10.23
2024-03-12T12:09:09.862Z,10.23
2024-03-12T12:11:39.582Z,10.21
2024-03-12T12:14:10.269Z,10.20
2024-03-12T12:16:39.602Z,10.21
2024-03-12T12:19:13.800Z,10.31
2024-03-12T12:21:46.482Z,10.47
2024-03-12T12:24:14.854Z,10.71
2024-03-12T12:26:45.818Z,10.96
2024-03-12T12:29:15.838Z,11.13
2024-03-12T12:31:44.055Z,11.24
2024-03-12T12:34:12.545Z,11.32
2024-03-12T12:36:45.025Z,11.32
2024-03-12T12:39:18.136Z,11.32
2024-03-12T12:41:47.393Z,11.28
2024-03-12T12:44:22.163Z,11.32
2024-03-12T12:46:50.067Z,11.42
2024-03-12T12:49:18.654Z,11.40
2024-03-12T12:51:47.372Z,11.39
2024-03-12T12:54:20.018Z,11.38
2024-03-12T12:56:47.940Z,11.35
2024-03-12T12:59:24.359Z,11.25
2024-03-12T13:01:52.082Z,11.14
2024-03-12T13:04:28.892Z,11.07
2024-03-12T13:06:58.096Z,10.99
2024-03-12T13:09:35.275Z,10.93
2024-03-12T13:12:11.023Z,10.86
2024-03-12T13:14:38.473Z,10.86
2024-03-12T13:17:07.174Z,10.93
2024-03-12T13:19:34.785Z,11.03
2024-03-12T13:22:04.004Z,11.25
2024-03-12T13:24:33.048Z,11.50
2024-03-12T13:27:00.483Z,11.72
2024-03-12T13:29:29.245Z,11.90
2024-03-12T13:31:56.707Z,12.21
2024-03-12T13:34:25.041Z,12.44
2024-03-12T13:36:53.025Z,12.72
2024-03-12T13:39:20.649Z,12.82
2024-03-12T13:41:47.948Z,12.89
2024-03-12T13:44:15.361Z,12.94
2024-03-12T13:46:44.667Z,12.94
2024-03-12T13:49:16.782Z,12.99
2024-03-12T13:51:46.411Z,12.97
2024-03-12T13:54:13.800Z,12.97
2024-03-12T13:56:41.291Z,12.94
2024-03-12T13:59:08.788Z,12.85
2024-03-12T14:01:36.505Z,12.80
2024-03-12T14:04:04.259Z,12.77
2024-03-12T14:06:33.621Z,12.74
2024-03-12T14:09:01.009Z,12.62
2024-03-12T14:11:28.574Z,12.48
2024-03-12T14:13:56.711Z,12.36
2024-03-12T14:16:24.943Z,12.26
2024-03-12T14:18:53.909Z,12.23
2024-03-12T14:21:22.383Z,12.22
2024-03-12T14:23:50.309Z,12.23
2024-03-12T14:26:17.908Z,12.15
2024-03-12T14:28:46.557Z,12.07
2024-03-12T14:31:17.348Z,11.96
2024-03-12T14:33:44.826Z,11.94
2024-03-12T14:36:12.242Z,11.90
2024-03-12T14:38:39.627Z,11.92
2024-03-12T14:41:10.039Z,11.96
2024-03-12T14:43:37.293Z,12.07
2024-03-12T14:46:05.991Z,12.24
2024-03-12T14:48:35.318Z,12.43
2024-03-12T14:51:02.707Z,12.66
2024-03-12T14:53:29.981Z,12.77
2024-03-12T14:56:00.408Z,12.76
2024-03-12T14:58:28.671Z,12.63
2024-03-12T15:00:55.882Z,12.43
2024-03-12T15:03:23.118Z,12.21
2024-03-12T15:05:54.810Z,12.01
2024-03-12T15:08:22.133Z,11.84
2024-03-12T15:10:49.394Z,11.73
2024-03-12T15:13:18.714Z,11.65
2024-03-12T15:15:48.552Z,11.60
2024-03-12T15:18:17.415Z,11.55
2024-03-12T15:20:47.318Z,11.50
2024-03-12T15:23:14.543Z,11.47
2024-03-12T15:25:43.131Z,11.43
2024-03-12T15:28:10.473Z,11.38
2024-03-12T15:30:41.187Z,11.34
2024-03-12T15:33:13.879Z,11.31
2024-03-12T15:35:53.776Z,11.32
2024-03-12T15:38:21.665Z,11.29
2024-03-12T15:40:49.531Z,11.25
2024-03-12T15:43:20.383Z,11.17
2024-03-12T15:45:47.676Z,11.09
2024-03-12T15:48:14.980Z,11.02
2024-03-12T15:50:42.242Z,10.99
2024-03-12T15:53:12.828Z,10.94
2024-03-12T15:55:41.442Z,10.87
2024-03-12T15:58:08.955Z,10.82
2024-03-12T16:00:37.446Z,10.75
2024-03-12T16:03:05.674Z,10.68
2024-03-12T16:05:32.836Z,10.63
2024-03-12T16:08:04.430Z,10.58
2024-03-12T16:10:33.087Z,10.52
2024-03-12T16:13:04.005Z,10.47
2024-03-12T16:15:32.836Z,10.40
2024-03-12T16:18:03.451Z,10.37
2024-03-12T16:20:30.716Z,10.32
2024-03-12T16:22:57.905Z,10.29
2024-03-12T16:25:25.215Z,10.28
2024-03-12T16:27:52.474Z,10.25
2024-03-12T16:30:28.706Z,10.24
2024-03-12T16:32:59.453Z,10.20
2024-03-12T16:35:30.335Z,10.14
2024-03-12T16:38:01.261Z,10.04
2024-03-12T16:40:28.569Z,9.94
2024-03-12T16:42:57.069Z,9.92
2024-03-12T16:45:30.847Z,9.86
2024-03-12T16:48:02.436Z,9.81
2024-03-12T16:50:29.621Z,9.75
2024-03-12T16:52:56.876Z,9.67
2024-03-12T16:55:24.514Z,9.60
2024-03-12T16:57:52.236Z,9.55
2024-03-12T17:00:19.810Z,9.48
2024-03-12T17:02:49.255Z,9.44
2024-03-12T17:05:24.034Z,9.39
2024-03-12T17:07:59.698Z,9.37
2024-03-12T17:10:28.870Z,9.32
2024-03-12T17:12:57.095Z,9.27
2024-03-12T17:15:25.480Z,9.24
2024-03-12T17:17:57.101Z,9.19
2024-03-12T17:20:28.394Z,9.16
2024-03-12T17:22:56.703Z,9.15
2024-03-12T17:25:25.223Z,9.12
2024-03-12T17:27:53.637Z,9.10
2024-03-12T17:30:25.377Z,9.08
2024-03-12T17:32:56.628Z,9.05
2024-03-12T17:35:24.753Z,9.04
2024-03-12T17:38:02.177Z,9.04
2024-03-12T17:40:33.774Z,9.02
2024-03-12T17:43:09.930Z,9.04
2024-03-12T17:45:39.089Z,9.00
2024-03-12T17:48:10.027Z,8.98
2024-03-12T17:50:39.064Z,8.96
2024-03-12T17:53:10.299Z,8.92
2024-03-12T17:55:39.478Z,8.89
2024-03-12T17:58:07.553Z,8.83
2024-03-12T18:00:37.915Z,8.79
2024-03-12T18:03:07.385Z,8.75
2024-03-12T18:05:34.925Z,8.72
2024-03-12T18:08:08.448Z,8.68
2024-03-12T18:10:37.507Z,8.65
2024-03-12T18:13:05.069Z,8.61
2024-03-12T18:15:32.534Z,8.59
2024-03-12T18:18:01.919Z,8.55
2024-03-12T18:20:31.392Z,8.53
2024-03-12T18:23:01.742Z,8.50
2024-03-12T18:25:31.602Z,8.49
2024-03-12T18:27:59.125Z,8.47
2024-03-12T18:30:28.492Z,8.46
2024-03-12T18:32:55.999Z,8.45
2024-03-12T18:35:23.907Z,8.43
2024-03-12T18:37:52.261Z,8.43
2024-03-12T18:40:23.359Z,8.42
2024-03-12T18:42:53.356Z,8.39
2024-03-12T18:45:23.660Z,8.37
2024-03-12T18:47:54.249Z,8.37
2024-03-12T18:50:25.911Z,8.33
2024-03-12T18:52:53.760Z,8.31
2024-03-12T18:55:23.318Z,8.29
2024-03-12T18:57:52.042Z,8.27
2024-03-12T19:00:20.254Z,8.24
2024-03-12T19:02:49.711Z,8.23
2024-03-12T19:05:21.755Z,8.24
2024-03-12T19:07:51.743Z,8.23
2024-03-12T19:10:21.154Z,8.24
2024-03-12T19:12:49.238Z,8.22
2024-03-12T19:15:22.449Z,8.21
2024-03-12T19:17:51.793Z,8.19
2024-03-12T19:20:21.064Z,8.16
2024-03-12T19:22:51.642Z,8.15
2024-03-12T19:25:20.011Z,8.13
2024-03-12T19:27:52.812Z,8.11
2024-03-12T19:30:21.437Z,8.09
2024-03-12T19:32:53.342Z,8.11
2024-03-12T19:35:21.033Z,8.08
2024-03-12T19:37:50.144Z,8.08
2024-03-12T19:40:18.335Z,8.07
2024-03-12T19:42:50.685Z,8.06
2024-03-12T19:45:28.585Z,8.05
2024-03-12T19:48:01.261Z,8.02
2024-03-12T19:50:29.361Z,8.03
2024-03-12T19:52:57.716Z,8.04
2024-03-12T19:55:30.219Z,8.05
2024-03-12T19:58:06.244Z,8.06
2024-03-12T20:00:34.876Z,8.06
2024-03-12T20:03:07.541Z,8.06
2024-03-12T20:05:38.371Z,8.06
2024-03-12T20:08:09.884Z,8.04
2024-03-12T20:10:40.028Z,8.04
2024-03-12T20:13:44.353Z,8.05
2024-03-12T20:16:16.346Z,8.06
2024-03-12T20:18:47.109Z,8.06
2024-03-12T20:21:20.464Z,8.07
2024-03-12T20:23:47.705Z,8.07
2024-03-12T20:26:15.661Z,8.07
2024-03-12T20:28:43.031Z,8.08
2024-03-12T20:31:10.916Z,8.08
2024-03-12T20:33:39.830Z,8.09
2024-03-12T20:36:08.463Z,8.11
2024-03-12T20:38:35.621Z,8.12
2024-03-12T20:41:03.939Z,8.13
2024-03-12T20:43:31.318Z,8.13
2024-03-12T20:46:00.609Z,8.13
2024-03-12T20:48:32.746Z,8.13
2024-03-12T20:51:00.142Z,8.12
2024-03-12T20:53:28.304Z,8.12
2024-03-12T20:55:57.016Z,8.11
2024-03-12T20:58:24.710Z,8.10
2024-03-12T21:00:52.963Z,8.11
2024-03-12T21:03:20.584Z,8.11
2024-03-12T21:05:48.807Z,8.11
2024-03-12T21:08:17.669Z,8.11
2024-03-12T21:10:46.552Z,8.10
2024-03-12T21:13:14.954Z,8.05
2024-03-12T21:15:42.486Z,8.02
2024-03-12T21:18:10.799Z,7.98
2024-03-12T21:20:38.083Z,7.96
2024-03-12T21:23:07.058Z,7.95
2024-03-12T21:25:35.029Z,7.96
2024-03-12T21:28:02.465Z,7.98
2024-03-12T21:30:29.721Z,7.98
2024-03-12T21:32:56.949Z,8.00
2024-03-12T21:35:27.087Z,8.00
2024-03-12T21:37:54.363Z,8.01
2024-03-12T21:40:22.483Z,8.02
2024-03-12T21:42:49.733Z,8.03
2024-03-12T21:45:19.278Z,8.01
2024-03-12T21:47:48.671Z,7.99
2024-03-12T21:50:17.195Z,7.98
2024-03-12T21:52:45.973Z,7.98
2024-03-12T21:55:13.508Z,7.99
2024-03-12T21:57:44.445Z,8.02
2024-03-12T22:00:20.221Z,8.03
2024-03-12T22:02:49.322Z,8.04
2024-03-12T22:05:17.747Z,8.03
2024-03-12T22:07:45.527Z,8.04
2024-03-12T22:10:13.891Z,8.03
2024-03-12T22:12:42.495Z,8.02
2024-03-12T22:15:13.109Z,8.03
2024-03-12T22:17:44.631Z,8.04
2024-03-12T22:20:17.868Z,8.02
2024-03-12T22:22:45.924Z,8.04
2024-03-12T22:25:15.911Z,8.04
2024-03-12T22:27:44.988Z,8.05
2024-03-12T22:30:13.468Z,8.06
2024-03-12T22:32:43.471Z,8.08
2024-03-12T22:35:11.676Z,8.09
2024-03-12T22:37:39.416Z,8.12
2024-03-12T22:40:11.119Z,8.12
2024-03-12T22:42:39.756Z,8.13
2024-03-12T22:45:08.395Z,8.14
2024-03-12T22:47:36.103Z,8.16
2024-03-12T22:50:03.772Z,8.17
2024-03-12T22:52:31.993Z,8.19
2024-03-12T22:54:59.392Z,8.18
2024-03-12T22:57:28.078Z,8.19
2024-03-12T22:59:55.573Z,8.19
2024-03-12T23:02:23.555Z,8.19
2024-03-12T23:04:54.687Z,8.18
2024-03-12T23:07:22.218Z,8.18
2024-03-12T23:09:49.813Z,8.17
2024-03-12T23:12:17.100Z,8.16
2024-03-12T23:14:44.561Z,8.16
2024-03-12T23:17:11.774Z,8.17
2024-03-12T23:19:41.985Z,8.15
2024-03-12T23:22:10.412Z,8.15
2024-03-12T23:24:39.102Z,8.15
2024-03-12T23:27:06.741Z,8.16
2024-03-12T23:29:34.077Z,8.16
2024-03-12T23:32:01.261Z,8.15
2024-03-12T23:34:28.575Z,8.13
2024-03-12T23:36:55.833Z,8.15
2024-03-12T23:39:24.969Z,8.13
2024-03-12T23:41:53.659Z,8.14
2024-03-12T23:44:20.953Z,8.13
2024-03-12T23:46:48.336Z,8.11
2024-03-12T23:49:15.538Z,8.12
2024-03-12T23:51:42.941Z,8.11
2024-03-12T23:54:10.099Z,8.09
2024-03-12T23:56:39.522Z,8.11
2024-03-12T23:59:07.001Z,8.11
